sensor_id;sensor_type;location;lat;lon;timestamp;pressure;altitude;pressure_sealevel;temperature;humidity
60437;BME280;46289;51.992;4.498;2022-11-03T00:01:00;101389.06;;;11.77;100.00
60437;BME280;46289;51.992;4.498;2022-11-03T00:03:30;101385.59;;;11.78;100.00
60437;BME280;46289;51.992;4.498;2022-11-03T00:06:02;101391.63;;;11.75;100.00
60437;BME280;46289;51.992;4.498;2022-11-03T00:08:37;101399.56;;;11.77;100.00
60437;BME280;46289;51.992;4.498;2022-11-03T00:11:09;101380.31;;;11.78;100.00
60437;BME280;46289;51.992;4.498;2022-11-03T00:13:42;101375.13;;;11.81;100.00
60437;BME280;46289;51.992;4.498;2022-11-03T00:16:11;101371.59;;;11.79;100.00
60437;BME280;46289;51.992;4.498;2022-11-03T00:18:41;101356.69;;;11.78;100.00
60437;BME280;46289;51.992;4.498;2022-11-03T00:21:13;101359.25;;;11.76;100.00
60437;BME280;46289;51.992;4.498;2022-11-03T00:23:43;101362.66;;;11.71;100.00
60437;BME280;46289;51.992;4.498;2022-11-03T00:26:15;101354.72;;;11.68;100.00
60437;BME280;46289;51.992;4.498;2022-11-03T00:28:47;101345.03;;;11.65;100.00
60437;BME280;46289;51.992;4.498;2022-11-03T00:31:19;101346.78;;;11.65;100.00
60437;BME280;46289;51.992;4.498;2022-11-03T00:33:49;101353.06;;;11.74;100.00
60437;BME280;46289;51.992;4.498;2022-11-03T00:36:23;101350.47;;;11.76;100.00
60437;BME280;46289;51.992;4.498;2022-11-03T00:38:53;101360.94;;;11.73;100.00
60437;BME280;46289;51.992;4.498;2022-11-03T00:41:25;101345.16;;;11.71;100.00
60437;BME280;46289;51.992;4.498;2022-11-03T00:43:55;101348.72;;;11.76;100.00
60437;BME280;46289;51.992;4.498;2022-11-03T00:46:25;101357.59;;;11.80;100.00
60437;BME280;46289;51.992;4.498;2022-11-03T00:48:56;101352.16;;;11.71;100.00
60437;BME280;46289;51.992;4.498;2022-11-03T00:51:28;101339.88;;;11.70;100.00
60437;BME280;46289;51.992;4.498;2022-11-03T00:54:01;101338.03;;;11.66;100.00
60437;BME280;46289;51.992;4.498;2022-11-03T00:56:33;101345.03;;;11.65;100.00
60437;BME280;46289;51.992;4.498;2022-11-03T00:59:04;101329.25;;;11.64;100.00
60437;BME280;46289;51.992;4.498;2022-11-03T01:01:37;101330.09;;;11.61;100.00
60437;BME280;46289;51.992;4.498;2022-11-03T01:04:14;101321.38;;;11.64;100.00
60437;BME280;46289;51.992;4.498;2022-11-03T01:06:59;101319.56;;;11.61;100.00
60437;BME280;46289;51.992;4.498;2022-11-03T01:09:34;101323.06;;;11.60;100.00
60437;BME280;46289;51.992;4.498;2022-11-03T01:12:06;101324.78;;;11.58;100.00
60437;BME280;46289;51.992;4.498;2022-11-03T01:14:39;101320.38;;;11.57;100.00
60437;BME280;46289;51.992;4.498;2022-11-03T01:17:11;101323.13;;;11.63;100.00
60437;BME280;46289;51.992;4.498;2022-11-03T01:19:41;101327.66;;;11.73;100.00
60437;BME280;46289;51.992;4.498;2022-11-03T01:22:14;101317.78;;;11.59;100.00
60437;BME280;46289;51.992;4.498;2022-11-03T01:24:46;101314.31;;;11.61;100.00
60437;BME280;46289;51.992;4.498;2022-11-03T01:27:19;101307.31;;;11.62;100.00
60437;BME280;46289;51.992;4.498;2022-11-03T01:29:49;101299.50;;;11.65;100.00
60437;BME280;46289;51.992;4.498;2022-11-03T01:32:20;101306.41;;;11.60;100.00
60437;BME280;46289;51.992;4.498;2022-11-03T01:34:50;101307.31;;;11.62;100.00
60437;BME280;46289;51.992;4.498;2022-11-03T01:37:23;101295.97;;;11.64;100.00
60437;BME280;46289;51.992;4.498;2022-11-03T01:39:55;101295.06;;;11.62;100.00
60437;BME280;46289;51.992;4.498;2022-11-03T01:42:24;101301.16;;;11.60;100.00
60437;BME280;46289;51.992;4.498;2022-11-03T01:44:54;101287.09;;;11.56;100.00
60437;BME280;46289;51.992;4.498;2022-11-03T01:47:26;101287.13;;;11.58;100.00
60437;BME280;46289;51.992;4.498;2022-11-03T01:50:00;101287.00;;;11.50;100.00
60437;BME280;46289;51.992;4.498;2022-11-03T01:52:37;101285.28;;;11.54;100.00
60437;BME280;46289;51.992;4.498;2022-11-03T01:55:12;101286.16;;;11.53;100.00
60437;BME280;46289;51.992;4.498;2022-11-03T01:57:46;101273.97;;;11.56;100.00
60437;BME280;46289;51.992;4.498;2022-11-03T02:00:19;101274.69;;;11.47;100.00
60437;BME280;46289;51.992;4.498;2022-11-03T02:02:49;101274.66;;;11.46;100.00
60437;BME280;46289;51.992;4.498;2022-11-03T02:05:21;101277.38;;;11.52;100.00
60437;BME280;46289;51.992;4.498;2022-11-03T02:07:58;101265.25;;;11.59;100.00
60437;BME280;46289;51.992;4.498;2022-11-03T02:10:30;101244.19;;;11.56;100.00
60437;BME280;46289;51.992;4.498;2022-11-03T02:13:00;101248.59;;;11.58;100.00
60437;BME280;46289;51.992;4.498;2022-11-03T02:15:33;101243.31;;;11.57;100.00
60437;BME280;46289;51.992;4.498;2022-11-03T02:18:03;101253.81;;;11.57;100.00
60437;BME280;46289;51.992;4.498;2022-11-03T02:20:34;101245.13;;;11.61;100.00
60437;BME280;46289;51.992;4.498;2022-11-03T02:23:26;101226.63;;;11.53;100.00
60437;BME280;46289;51.992;4.498;2022-11-03T02:26:01;101231.03;;;11.56;100.00
60437;BME280;46289;51.992;4.498;2022-11-03T02:28:31;101228.38;;;11.53;100.00
60437;BME280;46289;51.992;4.498;2022-11-03T02:31:08;101217.00;;;11.54;100.00
60437;BME280;46289;51.992;4.498;2022-11-03T02:33:48;101220.59;;;11.59;100.00
60437;BME280;46289;51.992;4.498;2022-11-03T02:36:26;101222.34;;;11.60;100.00
60437;BME280;46289;51.992;4.498;2022-11-03T02:39:00;101215.38;;;11.62;100.00
60437;BME280;46289;51.992;4.498;2022-11-03T02:41:36;101201.41;;;11.64;100.00
60437;BME280;46289;51.992;4.498;2022-11-03T02:44:11;101200.47;;;11.61;100.00
60437;BME280;46289;51.992;4.498;2022-11-03T02:46:44;101194.31;;;11.59;100.00
60437;BME280;46289;51.992;4.498;2022-11-03T02:49:15;101191.66;;;11.57;100.00
60437;BME280;46289;51.992;4.498;2022-11-03T02:51:46;101190.72;;;11.54;100.00
60437;BME280;46289;51.992;4.498;2022-11-03T02:54:20;101185.47;;;11.54;100.00
60437;BME280;46289;51.992;4.498;2022-11-03T02:56:58;101175.03;;;11.58;100.00
60437;BME280;46289;51.992;4.498;2022-11-03T02:59:33;101168.94;;;11.59;100.00
60437;BME280;46289;51.992;4.498;2022-11-03T03:02:08;101163.75;;;11.64;100.00
60437;BME280;46289;51.992;4.498;2022-11-03T03:04:43;101150.53;;;11.59;100.00
60437;BME280;46289;51.992;4.498;2022-11-03T03:07:17;101161.00;;;11.56;100.00
60437;BME280;46289;51.992;4.498;2022-11-03T03:09:55;101167.03;;;11.51;100.00
60437;BME280;46289;51.992;4.498;2022-11-03T03:12:30;101161.81;;;11.52;100.00
60437;BME280;46289;51.992;4.498;2022-11-03T03:15:03;101151.22;;;11.46;100.00
60437;BME280;46289;51.992;4.498;2022-11-03T03:17:42;101155.72;;;11.55;100.00
60437;BME280;46289;51.992;4.498;2022-11-03T03:20:19;101144.31;;;11.53;100.00
60437;BME280;46289;51.992;4.498;2022-11-03T03:22:55;101145.13;;;11.48;100.00
60437;BME280;46289;51.992;4.498;2022-11-03T03:25:28;101152.16;;;11.50;100.00
60437;BME280;46289;51.992;4.498;2022-11-03T03:28:07;101134.78;;;11.61;100.00
60437;BME280;46289;51.992;4.498;2022-11-03T03:30:38;101137.31;;;11.53;100.00
60437;BME280;46289;51.992;4.498;2022-11-03T03:33:10;101133.00;;;11.57;100.00
60437;BME280;46289;51.992;4.498;2022-11-03T03:35:44;101127.78;;;11.60;100.00
60437;BME280;46289;51.992;4.498;2022-11-03T03:38:19;101123.44;;;11.62;100.00
60437;BME280;46289;51.992;4.498;2022-11-03T03:40:53;101120.81;;;11.62;100.00
60437;BME280;46289;51.992;4.498;2022-11-03T03:43:28;101120.75;;;11.59;100.00
60437;BME280;46289;51.992;4.498;2022-11-03T03:46:03;101128.69;;;11.63;100.00
60437;BME280;46289;51.992;4.498;2022-11-03T03:48:36;101121.69;;;11.62;100.00
60437;BME280;46289;51.992;4.498;2022-11-03T03:51:07;101113.78;;;11.61;100.00
60437;BME280;46289;51.992;4.498;2022-11-03T03:53:38;101119.91;;;11.60;100.00
60437;BME280;46289;51.992;4.498;2022-11-03T03:56:07;101115.50;;;11.59;100.00
60437;BME280;46289;51.992;4.498;2022-11-03T03:58:40;101108.50;;;11.59;100.00
60437;BME280;46289;51.992;4.498;2022-11-03T04:01:10;101104.13;;;11.58;100.00
60437;BME280;46289;51.992;4.498;2022-11-03T04:03:40;101093.59;;;11.57;100.00
60437;BME280;46289;51.992;4.498;2022-11-03T04:06:10;101098.03;;;11.61;100.00
60437;BME280;46289;51.992;4.498;2022-11-03T04:08:40;101111.16;;;11.61;100.00
60437;BME280;46289;51.992;4.498;2022-11-03T04:11:09;101098.03;;;11.61;100.00
60437;BME280;46289;51.992;4.498;2022-11-03T04:13:54;101105.03;;;11.62;100.00
60437;BME280;46289;51.992;4.498;2022-11-03T04:16:36;101103.16;;;11.52;100.00
60437;BME280;46289;51.992;4.498;2022-11-03T04:19:18;101101.50;;;11.60;100.00
60437;BME280;46289;51.992;4.498;2022-11-03T04:22:00;101097.97;;;11.58;100.00
60437;BME280;46289;51.992;4.498;2022-11-03T04:24:48;101091.00;;;11.60;100.00
60437;BME280;46289;51.992;4.498;2022-11-03T04:27:30;101096.22;;;11.57;100.00
60437;BME280;46289;51.992;4.498;2022-11-03T04:30:12;101078.69;;;11.56;100.00
60437;BME280;46289;51.992;4.498;2022-11-03T04:32:45;101076.13;;;11.60;100.00
60437;BME280;46289;51.992;4.498;2022-11-03T04:35:18;101087.56;;;11.64;100.00
60437;BME280;46289;51.992;4.498;2022-11-03T04:37:50;101074.41;;;11.64;100.00
60437;BME280;46289;51.992;4.498;2022-11-03T04:40:23;101068.34;;;11.68;100.00
60437;BME280;46289;51.992;4.498;2022-11-03T04:42:53;101067.34;;;11.58;100.00
60437;BME280;46289;51.992;4.498;2022-11-03T04:45:28;101077.03;;;11.64;100.00
60437;BME280;46289;51.992;4.498;2022-11-03T04:48:01;101056.88;;;11.61;100.00
60437;BME280;46289;51.992;4.498;2022-11-03T04:50:39;101058.53;;;11.55;100.00
60437;BME280;46289;51.992;4.498;2022-11-03T04:53:14;101057.03;;;11.73;100.00
60437;BME280;46289;51.992;4.498;2022-11-03T04:55:45;101040.34;;;11.71;100.00
60437;BME280;46289;51.992;4.498;2022-11-03T04:58:18;101041.16;;;11.66;100.00
60437;BME280;46289;51.992;4.498;2022-11-03T05:00:52;101039.50;;;11.74;100.00
60437;BME280;46289;51.992;4.498;2022-11-03T05:03:24;101027.31;;;11.77;100.00
60437;BME280;46289;51.992;4.498;2022-11-03T05:05:55;101029.19;;;11.86;100.00
60437;BME280;46289;51.992;4.498;2022-11-03T05:08:24;101028.31;;;11.87;100.00
60437;BME280;46289;51.992;4.498;2022-11-03T05:10:54;101024.81;;;11.88;100.00
60437;BME280;46289;51.992;4.498;2022-11-03T05:13:24;101013.47;;;11.92;100.00
60437;BME280;46289;51.992;4.498;2022-11-03T05:16:02;101014.38;;;11.94;100.00
60437;BME280;46289;51.992;4.498;2022-11-03T05:18:34;101004.66;;;11.89;100.00
60437;BME280;46289;51.992;4.498;2022-11-03T05:21:07;101015.13;;;11.84;100.00
60437;BME280;46289;51.992;4.498;2022-11-03T05:23:38;101014.38;;;11.96;100.00
60437;BME280;46289;51.992;4.498;2022-11-03T05:26:14;101002.97;;;11.94;100.00
60437;BME280;46289;51.992;4.498;2022-11-03T05:28:48;101000.34;;;11.94;100.00
60437;BME280;46289;51.992;4.498;2022-11-03T05:31:24;100997.66;;;11.89;100.00
60437;BME280;46289;51.992;4.498;2022-11-03T05:33:56;100994.16;;;11.89;100.00
60437;BME280;46289;51.992;4.498;2022-11-03T05:36:28;100986.22;;;11.84;100.00
60437;BME280;46289;51.992;4.498;2022-11-03T05:39:04;100991.50;;;11.87;100.00
60437;BME280;46289;51.992;4.498;2022-11-03T05:41:41;100980.06;;;11.81;100.00
60437;BME280;46289;51.992;4.498;2022-11-03T05:44:23;100979.94;;;11.71;100.00
60437;BME280;46289;51.992;4.498;2022-11-03T05:46:57;100979.00;;;11.68;100.00
60437;BME280;46289;51.992;4.498;2022-11-03T05:49:32;100966.69;;;11.62;100.00
60437;BME280;46289;51.992;4.498;2022-11-03T05:52:02;100973.72;;;11.65;100.00
60437;BME280;46289;51.992;4.498;2022-11-03T05:54:33;100966.66;;;11.61;100.00
60437;BME280;46289;51.992;4.498;2022-11-03T05:57:07;100975.38;;;11.57;100.00
60437;BME280;46289;51.992;4.498;2022-11-03T05:59:39;100975.34;;;11.54;100.00
60437;BME280;46289;51.992;4.498;2022-11-03T06:02:25;100970.06;;;11.52;100.00
60437;BME280;46289;51.992;4.498;2022-11-03T06:04:57;100975.34;;;11.54;100.00
60437;BME280;46289;51.992;4.498;2022-11-03T06:07:29;100963.13;;;11.56;100.00
60437;BME280;46289;51.992;4.498;2022-11-03T06:09:59;100970.06;;;11.51;100.00
60437;BME280;46289;51.992;4.498;2022-11-03T06:12:31;100956.91;;;11.49;100.00
60437;BME280;46289;51.992;4.498;2022-11-03T06:15:06;100953.34;;;11.44;100.00
60437;BME280;46289;51.992;4.498;2022-11-03T06:17:50;100945.50;;;11.47;100.00
60437;BME280;46289;51.992;4.498;2022-11-03T06:20:21;100949.91;;;11.50;100.00
60437;BME280;46289;51.992;4.498;2022-11-03T06:22:53;100937.63;;;11.48;100.00
60437;BME280;46289;51.992;4.498;2022-11-03T06:25:27;100945.50;;;11.45;100.00
60437;BME280;46289;51.992;4.498;2022-11-03T06:28:01;100940.22;;;11.42;100.00
60437;BME280;46289;51.992;4.498;2022-11-03T06:30:33;100947.28;;;11.50;100.00
60437;BME280;46289;51.992;4.498;2022-11-03T06:33:12;100943.72;;;11.41;100.00
60437;BME280;46289;51.992;4.498;2022-11-03T06:35:42;100934.94;;;11.39;100.00
60437;BME280;46289;51.992;4.498;2022-11-03T06:38:16;100937.56;;;11.38;100.00
60437;BME280;46289;51.992;4.498;2022-11-03T06:40:48;100932.34;;;11.41;100.00
60437;BME280;46289;51.992;4.498;2022-11-03T06:43:21;100934.91;;;11.36;100.00
60437;BME280;46289;51.992;4.498;2022-11-03T06:45:57;100928.88;;;11.46;100.00
60437;BME280;46289;51.992;4.498;2022-11-03T06:48:32;100925.34;;;11.43;100.00
60437;BME280;46289;51.992;4.498;2022-11-03T06:51:02;100918.34;;;11.45;100.00
60437;BME280;46289;51.992;4.498;2022-11-03T06:53:42;100919.25;;;11.48;100.00
60437;BME280;46289;51.992;4.498;2022-11-03T06:56:14;100911.38;;;11.48;100.00
60437;BME280;46289;51.992;4.498;2022-11-03T06:58:45;100916.59;;;11.45;100.00
60437;BME280;46289;51.992;4.498;2022-11-03T07:01:20;100914.88;;;11.47;100.00
60437;BME280;46289;51.992;4.498;2022-11-03T07:03:57;100916.63;;;11.48;100.00
60437;BME280;46289;51.992;4.498;2022-11-03T07:06:29;100917.53;;;11.51;100.00
60437;BME280;46289;51.992;4.498;2022-11-03T07:09:01;100911.41;;;11.52;100.00
60437;BME280;46289;51.992;4.498;2022-11-03T07:11:43;100912.28;;;11.52;100.00
60437;BME280;46289;51.992;4.498;2022-11-03T07:14:15;100915.78;;;11.51;100.00
60437;BME280;46289;51.992;4.498;2022-11-03T07:16:46;100901.81;;;11.54;100.00
60437;BME280;46289;51.992;4.498;2022-11-03T07:19:21;100896.63;;;11.60;100.00
60437;BME280;46289;51.992;4.498;2022-11-03T07:21:53;100893.19;;;11.67;100.00
60437;BME280;46289;51.992;4.498;2022-11-03T07:24:25;100898.47;;;11.70;100.00
60437;BME280;46289;51.992;4.498;2022-11-03T07:27:00;100889.72;;;11.71;100.00
60437;BME280;46289;51.992;4.498;2022-11-03T07:29:32;100891.47;;;11.72;100.00
60437;BME280;46289;51.992;4.498;2022-11-03T07:32:09;100905.56;;;11.77;100.00
60437;BME280;46289;51.992;4.498;2022-11-03T07:34:45;100903.84;;;11.79;100.00
60437;BME280;46289;51.992;4.498;2022-11-03T07:37:19;100907.38;;;11.81;100.00
60437;BME280;46289;51.992;4.498;2022-11-03T07:39:51;100903.00;;;11.83;100.00
60437;BME280;46289;51.992;4.498;2022-11-03T07:42:22;100910.06;;;11.89;100.00
60437;BME280;46289;51.992;4.498;2022-11-03T07:44:54;100907.41;;;11.87;100.00
60437;BME280;46289;51.992;4.498;2022-11-03T07:47:26;100898.66;;;11.88;100.00
60437;BME280;46289;51.992;4.498;2022-11-03T07:49:58;100897.84;;;11.92;100.00
60437;BME280;46289;51.992;4.498;2022-11-03T07:52:28;100891.69;;;11.90;100.00
60437;BME280;46289;51.992;4.498;2022-11-03T07:55:07;100882.94;;;11.91;100.00
60437;BME280;46289;51.992;4.498;2022-11-03T07:58:23;100876.84;;;11.95;100.00
60437;BME280;46289;51.992;4.498;2022-11-03T08:01:52;100869.84;;;11.99;100.00
60437;BME280;46289;51.992;4.498;2022-11-03T08:04:49;100860.19;;;11.98;100.00
60437;BME280;46289;51.992;4.498;2022-11-03T08:07:27;100858.47;;;11.98;100.00
60437;BME280;46289;51.992;4.498;2022-11-03T08:10:25;100852.38;;;12.04;100.00
60437;BME280;46289;51.992;4.498;2022-11-03T08:13:15;100839.19;;;11.99;100.00
60437;BME280;46289;51.992;4.498;2022-11-03T08:16:13;100836.59;;;12.04;100.00
60437;BME280;46289;51.992;4.498;2022-11-03T08:19:13;100831.34;;;12.04;100.00
60437;BME280;46289;51.992;4.498;2022-11-03T08:33:08;100803.38;;;12.17;100.00
60437;BME280;46289;51.992;4.498;2022-11-03T08:36:17;100792.03;;;12.24;100.00
60437;BME280;46289;51.992;4.498;2022-11-03T08:39:22;100784.16;;;12.28;100.00
60437;BME280;46289;51.992;4.498;2022-11-03T08:42:36;100775.41;;;12.31;100.00
60437;BME280;46289;51.992;4.498;2022-11-03T08:45:22;100763.13;;;12.30;100.00
60437;BME280;46289;51.992;4.498;2022-11-03T08:48:31;100767.53;;;12.32;100.00
60437;BME280;46289;51.992;4.498;2022-11-03T08:51:17;100760.53;;;12.34;100.00
60437;BME280;46289;51.992;4.498;2022-11-03T08:54:18;100746.53;;;12.38;100.00
60437;BME280;46289;51.992;4.498;2022-11-03T08:57:07;100751.81;;;12.52;100.00
60437;BME280;46289;51.992;4.498;2022-11-03T09:00:28;100736.03;;;12.52;100.00
60437;BME280;46289;51.992;4.498;2022-11-03T09:03:58;100730.75;;;12.49;100.00
60437;BME280;46289;51.992;4.498;2022-11-03T09:07:19;100729.00;;;12.53;100.00
60437;BME280;46289;51.992;4.498;2022-11-03T09:13:47;100725.53;;;12.58;100.00
60437;BME280;46289;51.992;4.498;2022-11-03T09:16:43;100715.88;;;12.60;100.00
60437;BME280;46289;51.992;4.498;2022-11-03T09:20:02;100702.75;;;12.65;100.00
60437;BME280;46289;51.992;4.498;2022-11-03T09:23:22;100706.25;;;12.61;100.00
60437;BME280;46289;51.992;4.498;2022-11-03T09:26:13;100697.50;;;12.66;100.00
60437;BME280;46289;51.992;4.498;2022-11-03T09:29:47;100680.84;;;12.75;100.00
60437;BME280;46289;51.992;4.498;2022-11-03T09:32:44;100680.84;;;12.80;100.00
60437;BME280;46289;51.992;4.498;2022-11-03T09:35:17;100673.84;;;12.80;100.00
60437;BME280;46289;51.992;4.498;2022-11-03T09:37:46;100685.25;;;12.87;100.00
60437;BME280;46289;51.992;4.498;2022-11-03T09:40:16;100681.75;;;12.94;100.00
60437;BME280;46289;51.992;4.498;2022-11-03T09:42:47;100680.00;;;12.96;100.00
60437;BME280;46289;51.992;4.498;2022-11-03T09:45:17;100675.63;;;12.99;100.00
60437;BME280;46289;51.992;4.498;2022-11-03T09:47:46;100673.00;;;13.07;100.00
60437;BME280;46289;51.992;4.498;2022-11-03T09:50:19;100657.19;;;13.04;100.00
60437;BME280;46289;51.992;4.498;2022-11-03T09:52:49;100658.94;;;13.06;100.00
60437;BME280;46289;51.992;4.498;2022-11-03T09:55:23;100657.19;;;13.07;100.00
60437;BME280;46289;51.992;4.498;2022-11-03T09:57:54;100648.41;;;13.05;100.00
60437;BME280;46289;51.992;4.498;2022-11-03T10:00:26;100638.75;;;13.08;100.00
60437;BME280;46289;51.992;4.498;2022-11-03T10:02:56;100651.94;;;13.10;100.00
60437;BME280;46289;51.992;4.498;2022-11-03T10:05:28;100647.53;;;13.03;100.00
60437;BME280;46289;51.992;4.498;2022-11-03T10:08:00;100650.16;;;13.03;100.00
60437;BME280;46289;51.992;4.498;2022-11-03T10:10:31;100641.41;;;13.04;100.00
60437;BME280;46289;51.992;4.498;2022-11-03T10:13:01;100637.88;;;13.11;100.00
60437;BME280;46289;51.992;4.498;2022-11-03T10:15:35;100621.22;;;13.07;100.00
60437;BME280;46289;51.992;4.498;2022-11-03T10:18:06;100617.72;;;13.18;100.00
60437;BME280;46289;51.992;4.498;2022-11-03T10:20:39;100608.03;;;13.09;100.00
60437;BME280;46289;51.992;4.498;2022-11-03T10:23:09;100598.38;;;13.13;100.00
60437;BME280;46289;51.992;4.498;2022-11-03T10:25:40;100595.78;;;13.20;100.00
60437;BME280;46289;51.992;4.498;2022-11-03T10:28:16;100597.50;;;13.14;100.00
60437;BME280;46289;51.992;4.498;2022-11-03T10:30:50;100591.38;;;13.15;100.00
60437;BME280;46289;51.992;4.498;2022-11-03T10:33:39;100597.50;;;13.12;100.00
60437;BME280;46289;51.992;4.498;2022-11-03T10:36:25;100579.09;;;13.21;100.00
60437;BME280;46289;51.992;4.498;2022-11-03T10:38:56;100587.84;;;13.14;100.00
60437;BME280;46289;51.992;4.498;2022-11-03T10:41:28;100582.59;;;13.25;100.00
60437;BME280;46289;51.992;4.498;2022-11-03T10:44:01;100561.53;;;13.28;100.00
60437;BME280;46289;51.992;4.498;2022-11-03T10:46:31;100569.44;;;13.26;100.00
60437;BME280;46289;51.992;4.498;2022-11-03T10:49:17;100560.63;;;13.39;100.00
60437;BME280;46289;51.992;4.498;2022-11-03T10:51:51;100567.66;;;13.34;100.00
60437;BME280;46289;51.992;4.498;2022-11-03T10:54:22;100556.22;;;13.41;100.00
60437;BME280;46289;51.992;4.498;2022-11-03T10:56:52;100544.78;;;13.52;100.00
60437;BME280;46289;51.992;4.498;2022-11-03T10:59:25;100536.88;;;13.50;100.00
60437;BME280;46289;51.992;4.498;2022-11-03T11:01:59;100544.72;;;13.61;100.00
60437;BME280;46289;51.992;4.498;2022-11-03T11:04:31;100546.44;;;13.71;100.00
60437;BME280;46289;51.992;4.498;2022-11-03T11:07:14;100545.56;;;13.66;100.00
60437;BME280;46289;51.992;4.498;2022-11-03T11:09:46;100539.44;;;13.65;100.00
60437;BME280;46289;51.992;4.498;2022-11-03T11:12:18;100535.84;;;13.80;100.00
60437;BME280;46289;51.992;4.498;2022-11-03T11:14:53;100531.53;;;13.62;100.00
60437;BME280;46289;51.992;4.498;2022-11-03T11:17:43;100513.94;;;13.67;100.00
60437;BME280;46289;51.992;4.498;2022-11-03T11:20:40;100508.66;;;13.73;100.00
60437;BME280;46289;51.992;4.498;2022-11-03T11:26:42;100501.53;;;13.92;100.00
60437;BME280;46289;51.992;4.498;2022-11-03T11:29:40;100500.66;;;13.89;100.00
60437;BME280;46289;51.992;4.498;2022-11-03T11:45:04;100457.53;;;14.02;100.00
60437;BME280;46289;51.992;4.498;2022-11-03T11:51:05;100451.47;;;13.88;100.00
60437;BME280;46289;51.992;4.498;2022-11-03T11:53:55;100431.22;;;13.94;100.00
60437;BME280;46289;51.992;4.498;2022-11-03T11:56:53;100435.66;;;13.88;100.00
60437;BME280;46289;51.992;4.498;2022-11-03T11:59:54;100409.31;;;13.85;100.00
60437;BME280;46289;51.992;4.498;2022-11-03T12:02:34;100400.50;;;13.87;100.00
60437;BME280;46289;51.992;4.498;2022-11-03T12:05:19;100397.84;;;13.89;100.00
60437;BME280;46289;51.992;4.498;2022-11-03T12:07:55;100393.41;;;13.94;100.00
60437;BME280;46289;51.992;4.498;2022-11-03T12:10:51;100382.78;;;14.04;100.00
60437;BME280;46289;51.992;4.498;2022-11-03T12:13:45;100383.66;;;14.08;100.00
60437;BME280;46289;51.992;4.498;2022-11-03T12:16:30;100395.09;;;14.05;100.00
60437;BME280;46289;51.992;4.498;2022-11-03T12:22:03;100379.31;;;13.99;100.00
60437;BME280;46289;51.992;4.498;2022-11-03T12:24:48;100380.22;;;13.97;100.00
60437;BME280;46289;51.992;4.498;2022-11-03T12:27:40;100371.34;;;14.05;100.00
60437;BME280;46289;51.992;4.498;2022-11-03T12:30:16;100378.34;;;14.13;100.00
60437;BME280;46289;51.992;4.498;2022-11-03T12:32:48;100365.00;;;14.28;100.00
60437;BME280;46289;51.992;4.498;2022-11-03T12:35:19;100353.44;;;14.44;100.00
60437;BME280;46289;51.992;4.498;2022-11-03T12:37:49;100359.53;;;14.52;100.00
60437;BME280;46289;51.992;4.498;2022-11-03T12:40:18;100341.81;;;14.60;100.00
60437;BME280;46289;51.992;4.498;2022-11-03T12:42:48;100327.56;;;14.77;100.00
60437;BME280;46289;51.992;4.498;2022-11-03T12:45:18;100322.84;;;15.00;100.00
60437;BME280;46289;51.992;4.498;2022-11-03T12:47:51;100319.31;;;15.02;100.00
60437;BME280;46289;51.992;4.498;2022-11-03T12:50:20;100315.69;;;15.10;100.00
60437;BME280;46289;51.992;4.498;2022-11-03T12:52:50;100302.34;;;15.20;100.00
60437;BME280;46289;51.992;4.498;2022-11-03T12:55:20;100311.06;;;15.25;100.00
60437;BME280;46289;51.992;4.498;2022-11-03T12:57:49;100294.44;;;15.17;100.00
60437;BME280;46289;51.992;4.498;2022-11-03T13:00:22;100276.13;;;15.05;100.00
60437;BME280;46289;51.992;4.498;2022-11-03T13:02:55;100284.78;;;15.16;100.00
60437;BME280;46289;51.992;4.498;2022-11-03T13:05:24;100282.78;;;15.33;100.00
60437;BME280;46289;51.992;4.498;2022-11-03T13:07:54;100274.84;;;15.33;100.00
60437;BME280;46289;51.992;4.498;2022-11-03T13:10:24;100277.47;;;15.35;100.00
60437;BME280;46289;51.992;4.498;2022-11-03T13:12:53;100264.25;;;15.35;100.00
60437;BME280;46289;51.992;4.498;2022-11-03T13:15:23;100248.59;;;15.21;100.00
60437;BME280;46289;51.992;4.498;2022-11-03T13:17:59;100246.81;;;15.23;100.00
60437;BME280;46289;51.992;4.498;2022-11-03T13:20:44;100246.91;;;15.17;100.00
60437;BME280;46289;51.992;4.498;2022-11-03T13:23:16;100243.50;;;15.09;100.00
60437;BME280;46289;51.992;4.498;2022-11-03T13:25:48;100246.06;;;15.15;100.00
60437;BME280;46289;51.992;4.498;2022-11-03T13:28:20;100240.94;;;15.04;100.00
60437;BME280;46289;51.992;4.498;2022-11-03T13:30:51;100230.38;;;15.03;100.00
60437;BME280;46289;51.992;4.498;2022-11-03T13:33:27;100228.50;;;15.11;100.00
60437;BME280;46289;51.992;4.498;2022-11-03T13:35:58;100233.78;;;15.11;100.00
60437;BME280;46289;51.992;4.498;2022-11-03T13:38:28;100232.19;;;14.99;100.00
60437;BME280;46289;51.992;4.498;2022-11-03T13:40:57;100241.78;;;15.07;100.00
60437;BME280;46289;51.992;4.498;2022-11-03T13:43:34;100234.88;;;14.98;100.00
60437;BME280;46289;51.992;4.498;2022-11-03T13:46:04;100240.16;;;14.96;100.00
60437;BME280;46289;51.992;4.498;2022-11-03T13:48:36;100232.28;;;14.95;100.00
60437;BME280;46289;51.992;4.498;2022-11-03T13:51:26;100229.69;;;14.90;100.00
60437;BME280;46289;51.992;4.498;2022-11-03T13:53:56;100212.94;;;14.93;100.00
60437;BME280;46289;51.992;4.498;2022-11-03T13:56:45;100216.63;;;14.80;100.00
60437;BME280;46289;51.992;4.498;2022-11-03T13:59:35;100200.75;;;14.83;100.00
60437;BME280;46289;51.992;4.498;2022-11-03T14:02:05;100204.28;;;14.82;100.00
60437;BME280;46289;51.992;4.498;2022-11-03T14:04:57;100190.31;;;14.73;100.00
60437;BME280;46289;51.992;4.498;2022-11-03T14:07:31;100185.06;;;14.73;100.00